<?xml version="1.0" encoding="UTF-8" standalone="no" ?>
<gpx xmlns="http://www.topografix.com/GPX/1/1" xmlns:xsi="http://www.w3.org/2001/XMLSchema-instance" xsi:schemaLocation="http://www.topografix.com/GPX/1/1 http://www.topografix.com/GPX/1/1/gpx.xsd" version="1.1" creator="VisuGPX - https://www.visugpx.com">
  <metadata>
    <name>La Croix du Vellan</name>
    <desc><![CDATA[La Croix du Vellan 950m  domine le petit village de Plan-de-Bay, 711m au pied des contreforts du Vercors dans la Drôme, 
Le départ au parking du village en contrebas, le chemin est très bien balisé, il faut comptez 1h1/2 de marche 238m de dénivelé dans la première partie, sans difficulté, mais on peut prendre son temps pour contempler la vue au sommet qui est magnifique d\' est en Ouest. Photos sur notre site [url]\"https://picasaweb.google.com/lh/sredir?uname=randomirabel&target=ALBUM&id=6198489888629656385&authkey=Gv1sRgCPuXhbvCpe7LCg&invite=CKDy3pUC&feat=email\"[/url]
]]></desc>
  </metadata>
  <trk>
    <name><![CDATA[24 sept. 2015 14:09:43]]></name>
    <cmt><![CDATA[La Croix de Vellan]]></cmt>
    <trkseg>
      <trkpt lat="44.81294" lon="5.16472">
        <ele>711</ele>
        <time>2015-09-24T12:09:43Z</time>
      </trkpt>
      <trkpt lat="44.81289" lon="5.16478">
        <ele>711</ele>
        <time>2015-09-24T12:10:20Z</time>
      </trkpt>
      <trkpt lat="44.81292" lon="5.16478">
        <ele>711</ele>
        <time>2015-09-24T12:11:00Z</time>
      </trkpt>
      <trkpt lat="44.81294" lon="5.16473">
        <ele>711</ele>
        <time>2015-09-24T12:11:05Z</time>
      </trkpt>
      <trkpt lat="44.81303" lon="5.16466">
        <ele>711</ele>
        <time>2015-09-24T12:11:11Z</time>
      </trkpt>
      <trkpt lat="44.81298" lon="5.16467">
        <ele>711</ele>
        <time>2015-09-24T12:11:26Z</time>
      </trkpt>
      <trkpt lat="44.81294" lon="5.16473">
        <ele>711</ele>
        <time>2015-09-24T12:11:40Z</time>
      </trkpt>
      <trkpt lat="44.8129" lon="5.16474">
        <ele>712</ele>
        <time>2015-09-24T12:11:52Z</time>
      </trkpt>
      <trkpt lat="44.81285" lon="5.16477">
        <ele>712</ele>
        <time>2015-09-24T12:11:56Z</time>
      </trkpt>
      <trkpt lat="44.81283" lon="5.16483">
        <ele>712</ele>
        <time>2015-09-24T12:12:01Z</time>
      </trkpt>
      <trkpt lat="44.81282" lon="5.16489">
        <ele>713</ele>
        <time>2015-09-24T12:12:05Z</time>
      </trkpt>
      <trkpt lat="44.81282" lon="5.16492">
        <ele>713</ele>
        <time>2015-09-24T12:12:11Z</time>
      </trkpt>
      <trkpt lat="44.81284" lon="5.16499">
        <ele>714</ele>
        <time>2015-09-24T12:12:19Z</time>
      </trkpt>
      <trkpt lat="44.81289" lon="5.16504">
        <ele>714</ele>
        <time>2015-09-24T12:12:24Z</time>
      </trkpt>
      <trkpt lat="44.81293" lon="5.16505">
        <ele>716</ele>
        <time>2015-09-24T12:12:30Z</time>
      </trkpt>
      <trkpt lat="44.81298" lon="5.16504">
        <ele>716</ele>
        <time>2015-09-24T12:12:35Z</time>
      </trkpt>
      <trkpt lat="44.81302" lon="5.16508">
        <ele>716</ele>
        <time>2015-09-24T12:12:43Z</time>
      </trkpt>
      <trkpt lat="44.81306" lon="5.16505">
        <ele>717</ele>
        <time>2015-09-24T12:12:49Z</time>
      </trkpt>
      <trkpt lat="44.81308" lon="5.16509">
        <ele>718</ele>
        <time>2015-09-24T12:13:00Z</time>
      </trkpt>
      <trkpt lat="44.81305" lon="5.16515">
        <ele>719</ele>
        <time>2015-09-24T12:13:08Z</time>
      </trkpt>
      <trkpt lat="44.81295" lon="5.16531">
        <ele>720</ele>
        <time>2015-09-24T12:13:22Z</time>
      </trkpt>
      <trkpt lat="44.81293" lon="5.16538">
        <ele>721</ele>
        <time>2015-09-24T12:13:28Z</time>
      </trkpt>
      <trkpt lat="44.81287" lon="5.16566">
        <ele>723</ele>
        <time>2015-09-24T12:13:55Z</time>
      </trkpt>
      <trkpt lat="44.81289" lon="5.16573">
        <ele>724</ele>
        <time>2015-09-24T12:14:01Z</time>
      </trkpt>
      <trkpt lat="44.81288" lon="5.1658">
        <ele>724</ele>
        <time>2015-09-24T12:14:07Z</time>
      </trkpt>
      <trkpt lat="44.81291" lon="5.16586">
        <ele>725</ele>
        <time>2015-09-24T12:14:14Z</time>
      </trkpt>
      <trkpt lat="44.81294" lon="5.16589">
        <ele>726</ele>
        <time>2015-09-24T12:14:19Z</time>
      </trkpt>
      <trkpt lat="44.81299" lon="5.1659">
        <ele>727</ele>
        <time>2015-09-24T12:14:23Z</time>
      </trkpt>
      <trkpt lat="44.81326" lon="5.16601">
        <ele>730</ele>
        <time>2015-09-24T12:14:54Z</time>
      </trkpt>
      <trkpt lat="44.8133" lon="5.166">
        <ele>730</ele>
        <time>2015-09-24T12:15:08Z</time>
      </trkpt>
      <trkpt lat="44.81345" lon="5.16608">
        <ele>732</ele>
        <time>2015-09-24T12:15:31Z</time>
      </trkpt>
      <trkpt lat="44.81352" lon="5.16618">
        <ele>733</ele>
        <time>2015-09-24T12:15:43Z</time>
      </trkpt>
      <trkpt lat="44.81357" lon="5.16618">
        <ele>734</ele>
        <time>2015-09-24T12:15:48Z</time>
      </trkpt>
      <trkpt lat="44.81367" lon="5.16613">
        <ele>734</ele>
        <time>2015-09-24T12:15:58Z</time>
      </trkpt>
      <trkpt lat="44.81372" lon="5.16613">
        <ele>734</ele>
        <time>2015-09-24T12:16:02Z</time>
      </trkpt>
      <trkpt lat="44.81393" lon="5.16596">
        <ele>736</ele>
        <time>2015-09-24T12:16:28Z</time>
      </trkpt>
      <trkpt lat="44.81427" lon="5.16581">
        <ele>738</ele>
        <time>2015-09-24T12:17:02Z</time>
      </trkpt>
      <trkpt lat="44.81429" lon="5.16575">
        <ele>738</ele>
        <time>2015-09-24T12:17:08Z</time>
      </trkpt>
      <trkpt lat="44.81455" lon="5.16552">
        <ele>741</ele>
        <time>2015-09-24T12:17:45Z</time>
      </trkpt>
      <trkpt lat="44.81486" lon="5.16542">
        <ele>744</ele>
        <time>2015-09-24T12:18:18Z</time>
      </trkpt>
      <trkpt lat="44.81511" lon="5.16521">
        <ele>749</ele>
        <time>2015-09-24T12:18:54Z</time>
      </trkpt>
      <trkpt lat="44.81529" lon="5.16511">
        <ele>753</ele>
        <time>2015-09-24T12:19:20Z</time>
      </trkpt>
      <trkpt lat="44.81543" lon="5.16512">
        <ele>755</ele>
        <time>2015-09-24T12:19:38Z</time>
      </trkpt>
      <trkpt lat="44.81557" lon="5.165">
        <ele>760</ele>
        <time>2015-09-24T12:20:06Z</time>
      </trkpt>
      <trkpt lat="44.81588" lon="5.16499">
        <ele>765</ele>
        <time>2015-09-24T12:20:41Z</time>
      </trkpt>
      <trkpt lat="44.81614" lon="5.1649">
        <ele>769</ele>
        <time>2015-09-24T12:21:15Z</time>
      </trkpt>
      <trkpt lat="44.81647" lon="5.16477">
        <ele>773</ele>
        <time>2015-09-24T12:21:53Z</time>
      </trkpt>
      <trkpt lat="44.81684" lon="5.16467">
        <ele>775</ele>
        <time>2015-09-24T12:22:33Z</time>
      </trkpt>
      <trkpt lat="44.81712" lon="5.16462">
        <ele>776</ele>
        <time>2015-09-24T12:23:05Z</time>
      </trkpt>
      <trkpt lat="44.81749" lon="5.16463">
        <ele>779</ele>
        <time>2015-09-24T12:23:42Z</time>
      </trkpt>
      <trkpt lat="44.81753" lon="5.16466">
        <ele>780</ele>
        <time>2015-09-24T12:23:44Z</time>
      </trkpt>
      <trkpt lat="44.81759" lon="5.16472">
        <ele>780</ele>
        <time>2015-09-24T12:23:46Z</time>
      </trkpt>
      <trkpt lat="44.8178" lon="5.16473">
        <ele>782</ele>
        <time>2015-09-24T12:24:14Z</time>
      </trkpt>
      <trkpt lat="44.81811" lon="5.16481">
        <ele>784</ele>
        <time>2015-09-24T12:24:49Z</time>
      </trkpt>
      <trkpt lat="44.81847" lon="5.16497">
        <ele>787</ele>
        <time>2015-09-24T12:25:31Z</time>
      </trkpt>
      <trkpt lat="44.81855" lon="5.16502">
        <ele>788</ele>
        <time>2015-09-24T12:25:43Z</time>
      </trkpt>
      <trkpt lat="44.81861" lon="5.16513">
        <ele>790</ele>
        <time>2015-09-24T12:25:59Z</time>
      </trkpt>
      <trkpt lat="44.81864" lon="5.16544">
        <ele>794</ele>
        <time>2015-09-24T12:26:37Z</time>
      </trkpt>
      <trkpt lat="44.8187" lon="5.16553">
        <ele>797</ele>
        <time>2015-09-24T12:26:55Z</time>
      </trkpt>
      <trkpt lat="44.81867" lon="5.16566">
        <ele>798</ele>
        <time>2015-09-24T12:27:09Z</time>
      </trkpt>
      <trkpt lat="44.81863" lon="5.16595">
        <ele>803</ele>
        <time>2015-09-24T12:27:44Z</time>
      </trkpt>
      <trkpt lat="44.81865" lon="5.16608">
        <ele>807</ele>
        <time>2015-09-24T12:28:06Z</time>
      </trkpt>
      <trkpt lat="44.8186" lon="5.16617">
        <ele>809</ele>
        <time>2015-09-24T12:28:25Z</time>
      </trkpt>
      <trkpt lat="44.81865" lon="5.16629">
        <ele>810</ele>
        <time>2015-09-24T12:28:39Z</time>
      </trkpt>
      <trkpt lat="44.81866" lon="5.16642">
        <ele>814</ele>
        <time>2015-09-24T12:28:52Z</time>
      </trkpt>
      <trkpt lat="44.81861" lon="5.16643">
        <ele>817</ele>
        <time>2015-09-24T12:29:13Z</time>
      </trkpt>
      <trkpt lat="44.81857" lon="5.16645">
        <ele>819</ele>
        <time>2015-09-24T12:29:21Z</time>
      </trkpt>
      <trkpt lat="44.81848" lon="5.1665">
        <ele>821</ele>
        <time>2015-09-24T12:29:36Z</time>
      </trkpt>
      <trkpt lat="44.81849" lon="5.16658">
        <ele>822</ele>
        <time>2015-09-24T12:29:44Z</time>
      </trkpt>
      <trkpt lat="44.81851" lon="5.16667">
        <ele>823</ele>
        <time>2015-09-24T12:29:49Z</time>
      </trkpt>
      <trkpt lat="44.81848" lon="5.1667">
        <ele>825</ele>
        <time>2015-09-24T12:30:17Z</time>
      </trkpt>
      <trkpt lat="44.81838" lon="5.16673">
        <ele>828</ele>
        <time>2015-09-24T12:30:37Z</time>
      </trkpt>
      <trkpt lat="44.81831" lon="5.1667">
        <ele>830</ele>
        <time>2015-09-24T12:30:49Z</time>
      </trkpt>
      <trkpt lat="44.81829" lon="5.16667">
        <ele>832</ele>
        <time>2015-09-24T12:31:28Z</time>
      </trkpt>
      <trkpt lat="44.81812" lon="5.16681">
        <ele>841</ele>
        <time>2015-09-24T12:31:59Z</time>
      </trkpt>
      <trkpt lat="44.81807" lon="5.16695">
        <ele>843</ele>
        <time>2015-09-24T12:32:10Z</time>
      </trkpt>
      <trkpt lat="44.81799" lon="5.167">
        <ele>845</ele>
        <time>2015-09-24T12:32:26Z</time>
      </trkpt>
      <trkpt lat="44.81794" lon="5.167">
        <ele>846</ele>
        <time>2015-09-24T12:32:34Z</time>
      </trkpt>
      <trkpt lat="44.81786" lon="5.16709">
        <ele>849</ele>
        <time>2015-09-24T12:32:56Z</time>
      </trkpt>
      <trkpt lat="44.81781" lon="5.16708">
        <ele>850</ele>
        <time>2015-09-24T12:33:03Z</time>
      </trkpt>
      <trkpt lat="44.81779" lon="5.16711">
        <ele>851</ele>
        <time>2015-09-24T12:33:11Z</time>
      </trkpt>
      <trkpt lat="44.81768" lon="5.16716">
        <ele>856</ele>
        <time>2015-09-24T12:33:35Z</time>
      </trkpt>
      <trkpt lat="44.81767" lon="5.16723">
        <ele>856</ele>
        <time>2015-09-24T12:33:40Z</time>
      </trkpt>
      <trkpt lat="44.81762" lon="5.16722">
        <ele>858</ele>
        <time>2015-09-24T12:33:55Z</time>
      </trkpt>
      <trkpt lat="44.81759" lon="5.16727">
        <ele>859</ele>
        <time>2015-09-24T12:34:01Z</time>
      </trkpt>
      <trkpt lat="44.81755" lon="5.16727">
        <ele>860</ele>
        <time>2015-09-24T12:34:10Z</time>
      </trkpt>
      <trkpt lat="44.81737" lon="5.16729">
        <ele>865</ele>
        <time>2015-09-24T12:34:45Z</time>
      </trkpt>
      <trkpt lat="44.81727" lon="5.16737">
        <ele>867</ele>
        <time>2015-09-24T12:35:04Z</time>
      </trkpt>
      <trkpt lat="44.81722" lon="5.16758">
        <ele>870</ele>
        <time>2015-09-24T12:35:30Z</time>
      </trkpt>
      <trkpt lat="44.81731" lon="5.16757">
        <ele>871</ele>
        <time>2015-09-24T12:35:41Z</time>
      </trkpt>
      <trkpt lat="44.81758" lon="5.16773">
        <ele>876</ele>
        <time>2015-09-24T12:36:25Z</time>
      </trkpt>
      <trkpt lat="44.81763" lon="5.16763">
        <ele>878</ele>
        <time>2015-09-24T12:37:00Z</time>
      </trkpt>
      <trkpt lat="44.81765" lon="5.16763">
        <ele>879</ele>
        <time>2015-09-24T12:37:55Z</time>
      </trkpt>
      <trkpt lat="44.81767" lon="5.16765">
        <ele>879</ele>
        <time>2015-09-24T12:41:03Z</time>
      </trkpt>
      <trkpt lat="44.81772" lon="5.16768">
        <ele>879</ele>
        <time>2015-09-24T12:41:37Z</time>
      </trkpt>
      <trkpt lat="44.81797" lon="5.16786">
        <ele>885</ele>
        <time>2015-09-24T12:42:15Z</time>
      </trkpt>
      <trkpt lat="44.81816" lon="5.16792">
        <ele>888</ele>
        <time>2015-09-24T12:42:44Z</time>
      </trkpt>
      <trkpt lat="44.81818" lon="5.16798">
        <ele>890</ele>
        <time>2015-09-24T12:42:53Z</time>
      </trkpt>
      <trkpt lat="44.81814" lon="5.16801">
        <ele>891</ele>
        <time>2015-09-24T12:43:08Z</time>
      </trkpt>
      <trkpt lat="44.81822" lon="5.16808">
        <ele>894</ele>
        <time>2015-09-24T12:43:28Z</time>
      </trkpt>
      <trkpt lat="44.81825" lon="5.16801">
        <ele>896</ele>
        <time>2015-09-24T12:43:51Z</time>
      </trkpt>
      <trkpt lat="44.81846" lon="5.16821">
        <ele>902</ele>
        <time>2015-09-24T12:44:45Z</time>
      </trkpt>
      <trkpt lat="44.81845" lon="5.1682">
        <ele>907</ele>
        <time>2015-09-24T12:46:07Z</time>
      </trkpt>
      <trkpt lat="44.81842" lon="5.16823">
        <ele>910</ele>
        <time>2015-09-24T12:46:30Z</time>
      </trkpt>
      <trkpt lat="44.81843" lon="5.16829">
        <ele>910</ele>
        <time>2015-09-24T12:46:36Z</time>
      </trkpt>
      <trkpt lat="44.81842" lon="5.16833">
        <ele>913</ele>
        <time>2015-09-24T12:46:50Z</time>
      </trkpt>
      <trkpt lat="44.81835" lon="5.16823">
        <ele>916</ele>
        <time>2015-09-24T12:47:14Z</time>
      </trkpt>
      <trkpt lat="44.81831" lon="5.16821">
        <ele>918</ele>
        <time>2015-09-24T12:47:39Z</time>
      </trkpt>
      <trkpt lat="44.81833" lon="5.16815">
        <ele>918</ele>
        <time>2015-09-24T12:47:56Z</time>
      </trkpt>
      <trkpt lat="44.81831" lon="5.1682">
        <ele>919</ele>
        <time>2015-09-24T12:48:58Z</time>
      </trkpt>
      <trkpt lat="44.81831" lon="5.16826">
        <ele>919</ele>
        <time>2015-09-24T12:49:08Z</time>
      </trkpt>
      <trkpt lat="44.81833" lon="5.16834">
        <ele>920</ele>
        <time>2015-09-24T12:49:15Z</time>
      </trkpt>
      <trkpt lat="44.81832" lon="5.16838">
        <ele>921</ele>
        <time>2015-09-24T12:49:26Z</time>
      </trkpt>
      <trkpt lat="44.81831" lon="5.16845">
        <ele>922</ele>
        <time>2015-09-24T12:49:33Z</time>
      </trkpt>
      <trkpt lat="44.81835" lon="5.1685">
        <ele>923</ele>
        <time>2015-09-24T12:49:41Z</time>
      </trkpt>
      <trkpt lat="44.81841" lon="5.16862">
        <ele>925</ele>
        <time>2015-09-24T12:50:15Z</time>
      </trkpt>
      <trkpt lat="44.8185" lon="5.16866">
        <ele>927</ele>
        <time>2015-09-24T12:50:22Z</time>
      </trkpt>
      <trkpt lat="44.81851" lon="5.16873">
        <ele>930</ele>
        <time>2015-09-24T12:50:59Z</time>
      </trkpt>
      <trkpt lat="44.81829" lon="5.16864">
        <ele>932</ele>
        <time>2015-09-24T12:51:31Z</time>
      </trkpt>
      <trkpt lat="44.81815" lon="5.16858">
        <ele>934</ele>
        <time>2015-09-24T12:51:50Z</time>
      </trkpt>
      <trkpt lat="44.81807" lon="5.1685">
        <ele>934</ele>
        <time>2015-09-24T12:52:02Z</time>
      </trkpt>
      <trkpt lat="44.81802" lon="5.1685">
        <ele>935</ele>
        <time>2015-09-24T12:52:09Z</time>
      </trkpt>
      <trkpt lat="44.81797" lon="5.16851">
        <ele>935</ele>
        <time>2015-09-24T12:52:17Z</time>
      </trkpt>
      <trkpt lat="44.81793" lon="5.16847">
        <ele>937</ele>
        <time>2015-09-24T12:52:25Z</time>
      </trkpt>
      <trkpt lat="44.8179" lon="5.16842">
        <ele>937</ele>
        <time>2015-09-24T12:52:31Z</time>
      </trkpt>
      <trkpt lat="44.81785" lon="5.16841">
        <ele>938</ele>
        <time>2015-09-24T12:52:37Z</time>
      </trkpt>
      <trkpt lat="44.8178" lon="5.16839">
        <ele>938</ele>
        <time>2015-09-24T12:52:42Z</time>
      </trkpt>
      <trkpt lat="44.81766" lon="5.16836">
        <ele>939</ele>
        <time>2015-09-24T12:52:59Z</time>
      </trkpt>
      <trkpt lat="44.81762" lon="5.16833">
        <ele>939</ele>
        <time>2015-09-24T12:53:05Z</time>
      </trkpt>
      <trkpt lat="44.81757" lon="5.16829">
        <ele>939</ele>
        <time>2015-09-24T12:53:12Z</time>
      </trkpt>
      <trkpt lat="44.81753" lon="5.16825">
        <ele>940</ele>
        <time>2015-09-24T12:53:17Z</time>
      </trkpt>
      <trkpt lat="44.81743" lon="5.16823">
        <ele>941</ele>
        <time>2015-09-24T12:53:29Z</time>
      </trkpt>
      <trkpt lat="44.81725" lon="5.1683">
        <ele>942</ele>
        <time>2015-09-24T12:53:51Z</time>
      </trkpt>
      <trkpt lat="44.81697" lon="5.16821">
        <ele>943</ele>
        <time>2015-09-24T12:54:23Z</time>
      </trkpt>
      <trkpt lat="44.81692" lon="5.16824">
        <ele>944</ele>
        <time>2015-09-24T12:54:28Z</time>
      </trkpt>
      <trkpt lat="44.81688" lon="5.16827">
        <ele>944</ele>
        <time>2015-09-24T12:54:32Z</time>
      </trkpt>
      <trkpt lat="44.81683" lon="5.1683">
        <ele>944</ele>
        <time>2015-09-24T12:54:36Z</time>
      </trkpt>
      <trkpt lat="44.81679" lon="5.16831">
        <ele>945</ele>
        <time>2015-09-24T12:54:41Z</time>
      </trkpt>
      <trkpt lat="44.81674" lon="5.16831">
        <ele>945</ele>
        <time>2015-09-24T12:54:46Z</time>
      </trkpt>
      <trkpt lat="44.81659" lon="5.16833">
        <ele>947</ele>
        <time>2015-09-24T12:55:00Z</time>
      </trkpt>
      <trkpt lat="44.81656" lon="5.16833">
        <ele>946</ele>
        <time>2015-09-24T12:55:32Z</time>
      </trkpt>
      <trkpt lat="44.81655" lon="5.16836">
        <ele>942</ele>
        <time>2015-09-24T12:58:12Z</time>
      </trkpt>
      <trkpt lat="44.81657" lon="5.16831">
        <ele>944</ele>
        <time>2015-09-24T13:13:18Z</time>
      </trkpt>
      <trkpt lat="44.81655" lon="5.16834">
        <ele>949</ele>
        <time>2015-09-24T13:19:30Z</time>
      </trkpt>
      <trkpt lat="44.81653" lon="5.1684">
        <ele>950</ele>
        <time>2015-09-24T13:20:18Z</time>
      </trkpt>
      <trkpt lat="44.81656" lon="5.16838">
        <ele>950</ele>
        <time>2015-09-24T13:21:57Z</time>
      </trkpt>
      <trkpt lat="44.81652" lon="5.16837">
        <ele>949</ele>
        <time>2015-09-24T13:23:57Z</time>
      </trkpt>
      <trkpt lat="44.81652" lon="5.16835">
        <ele>950</ele>
        <time>2015-09-24T13:28:08Z</time>
      </trkpt>
      <trkpt lat="44.81651" lon="5.16836">
        <ele>948</ele>
        <time>2015-09-24T13:28:45Z</time>
      </trkpt>
      <trkpt lat="44.81662" lon="5.1683">
        <ele>947</ele>
        <time>2015-09-24T13:29:12Z</time>
      </trkpt>
      <trkpt lat="44.81672" lon="5.16828">
        <ele>946</ele>
        <time>2015-09-24T13:29:24Z</time>
      </trkpt>
      <trkpt lat="44.81676" lon="5.16829">
        <ele>946</ele>
        <time>2015-09-24T13:29:30Z</time>
      </trkpt>
      <trkpt lat="44.81685" lon="5.16829">
        <ele>946</ele>
        <time>2015-09-24T13:29:34Z</time>
      </trkpt>
      <trkpt lat="44.81685" lon="5.16824">
        <ele>945</ele>
        <time>2015-09-24T13:29:43Z</time>
      </trkpt>
      <trkpt lat="44.81692" lon="5.16823">
        <ele>945</ele>
        <time>2015-09-24T13:29:56Z</time>
      </trkpt>
      <trkpt lat="44.81702" lon="5.16822">
        <ele>944</ele>
        <time>2015-09-24T13:30:11Z</time>
      </trkpt>
      <trkpt lat="44.81722" lon="5.16826">
        <ele>944</ele>
        <time>2015-09-24T13:30:37Z</time>
      </trkpt>
      <trkpt lat="44.81732" lon="5.16827">
        <ele>943</ele>
        <time>2015-09-24T13:30:45Z</time>
      </trkpt>
      <trkpt lat="44.8174" lon="5.16822">
        <ele>942</ele>
        <time>2015-09-24T13:30:57Z</time>
      </trkpt>
      <trkpt lat="44.81745" lon="5.16821">
        <ele>942</ele>
        <time>2015-09-24T13:31:04Z</time>
      </trkpt>
      <trkpt lat="44.8175" lon="5.16822">
        <ele>942</ele>
        <time>2015-09-24T13:31:10Z</time>
      </trkpt>
      <trkpt lat="44.81754" lon="5.16825">
        <ele>942</ele>
        <time>2015-09-24T13:31:15Z</time>
      </trkpt>
      <trkpt lat="44.81758" lon="5.16829">
        <ele>941</ele>
        <time>2015-09-24T13:31:21Z</time>
      </trkpt>
      <trkpt lat="44.81763" lon="5.16829">
        <ele>941</ele>
        <time>2015-09-24T13:31:27Z</time>
      </trkpt>
      <trkpt lat="44.81768" lon="5.16829">
        <ele>941</ele>
        <time>2015-09-24T13:31:32Z</time>
      </trkpt>
      <trkpt lat="44.81776" lon="5.16836">
        <ele>940</ele>
        <time>2015-09-24T13:31:42Z</time>
      </trkpt>
      <trkpt lat="44.81785" lon="5.1684">
        <ele>940</ele>
        <time>2015-09-24T13:31:53Z</time>
      </trkpt>
      <trkpt lat="44.81795" lon="5.16847">
        <ele>938</ele>
        <time>2015-09-24T13:32:19Z</time>
      </trkpt>
      <trkpt lat="44.81801" lon="5.16846">
        <ele>937</ele>
        <time>2015-09-24T13:32:29Z</time>
      </trkpt>
      <trkpt lat="44.81822" lon="5.16864">
        <ele>936</ele>
        <time>2015-09-24T13:32:54Z</time>
      </trkpt>
      <trkpt lat="44.81847" lon="5.16874">
        <ele>933</ele>
        <time>2015-09-24T13:33:25Z</time>
      </trkpt>
      <trkpt lat="44.81852" lon="5.16875">
        <ele>932</ele>
        <time>2015-09-24T13:33:31Z</time>
      </trkpt>
      <trkpt lat="44.81855" lon="5.16878">
        <ele>932</ele>
        <time>2015-09-24T13:33:35Z</time>
      </trkpt>
      <trkpt lat="44.81859" lon="5.16884">
        <ele>931</ele>
        <time>2015-09-24T13:33:42Z</time>
      </trkpt>
      <trkpt lat="44.81861" lon="5.1688">
        <ele>931</ele>
        <time>2015-09-24T13:33:50Z</time>
      </trkpt>
      <trkpt lat="44.81858" lon="5.16874">
        <ele>931</ele>
        <time>2015-09-24T13:33:58Z</time>
      </trkpt>
      <trkpt lat="44.81854" lon="5.16872">
        <ele>931</ele>
        <time>2015-09-24T13:34:06Z</time>
      </trkpt>
      <trkpt lat="44.81849" lon="5.16872">
        <ele>931</ele>
        <time>2015-09-24T13:34:16Z</time>
      </trkpt>
      <trkpt lat="44.81845" lon="5.16868">
        <ele>930</ele>
        <time>2015-09-24T13:34:21Z</time>
      </trkpt>
      <trkpt lat="44.81842" lon="5.16862">
        <ele>929</ele>
        <time>2015-09-24T13:34:25Z</time>
      </trkpt>
      <trkpt lat="44.81842" lon="5.16856">
        <ele>929</ele>
        <time>2015-09-24T13:34:28Z</time>
      </trkpt>
      <trkpt lat="44.81841" lon="5.16857">
        <ele>928</ele>
        <time>2015-09-24T13:34:37Z</time>
      </trkpt>
      <trkpt lat="44.81837" lon="5.16862">
        <ele>927</ele>
        <time>2015-09-24T13:34:45Z</time>
      </trkpt>
      <trkpt lat="44.81833" lon="5.16851">
        <ele>927</ele>
        <time>2015-09-24T13:34:56Z</time>
      </trkpt>
      <trkpt lat="44.81824" lon="5.1683">
        <ele>923</ele>
        <time>2015-09-24T13:35:14Z</time>
      </trkpt>
      <trkpt lat="44.81828" lon="5.16824">
        <ele>921</ele>
        <time>2015-09-24T13:35:28Z</time>
      </trkpt>
      <trkpt lat="44.8183" lon="5.16825">
        <ele>920</ele>
        <time>2015-09-24T13:35:42Z</time>
      </trkpt>
      <trkpt lat="44.81829" lon="5.16831">
        <ele>919</ele>
        <time>2015-09-24T13:35:53Z</time>
      </trkpt>
      <trkpt lat="44.81834" lon="5.16833">
        <ele>917</ele>
        <time>2015-09-24T13:36:05Z</time>
      </trkpt>
      <trkpt lat="44.81836" lon="5.16831">
        <ele>917</ele>
        <time>2015-09-24T13:36:11Z</time>
      </trkpt>
      <trkpt lat="44.81837" lon="5.16826">
        <ele>916</ele>
        <time>2015-09-24T13:36:23Z</time>
      </trkpt>
      <trkpt lat="44.81835" lon="5.16818">
        <ele>915</ele>
        <time>2015-09-24T13:36:31Z</time>
      </trkpt>
      <trkpt lat="44.81837" lon="5.16816">
        <ele>915</ele>
        <time>2015-09-24T13:36:39Z</time>
      </trkpt>
      <trkpt lat="44.81843" lon="5.16822">
        <ele>913</ele>
        <time>2015-09-24T13:36:55Z</time>
      </trkpt>
      <trkpt lat="44.81847" lon="5.16819">
        <ele>911</ele>
        <time>2015-09-24T13:37:00Z</time>
      </trkpt>
      <trkpt lat="44.81843" lon="5.16815">
        <ele>909</ele>
        <time>2015-09-24T13:37:07Z</time>
      </trkpt>
      <trkpt lat="44.81841" lon="5.16817">
        <ele>905</ele>
        <time>2015-09-24T13:37:38Z</time>
      </trkpt>
      <trkpt lat="44.81849" lon="5.16823">
        <ele>904</ele>
        <time>2015-09-24T13:38:01Z</time>
      </trkpt>
      <trkpt lat="44.81824" lon="5.16813">
        <ele>903</ele>
        <time>2015-09-24T13:38:25Z</time>
      </trkpt>
      <trkpt lat="44.8182" lon="5.168">
        <ele>900</ele>
        <time>2015-09-24T13:38:33Z</time>
      </trkpt>
      <trkpt lat="44.81815" lon="5.16798">
        <ele>899</ele>
        <time>2015-09-24T13:38:52Z</time>
      </trkpt>
      <trkpt lat="44.81814" lon="5.16802">
        <ele>898</ele>
        <time>2015-09-24T13:38:59Z</time>
      </trkpt>
      <trkpt lat="44.81811" lon="5.16794">
        <ele>894</ele>
        <time>2015-09-24T13:39:12Z</time>
      </trkpt>
      <trkpt lat="44.8181" lon="5.16791">
        <ele>893</ele>
        <time>2015-09-24T13:39:23Z</time>
      </trkpt>
      <trkpt lat="44.81811" lon="5.16785">
        <ele>891</ele>
        <time>2015-09-24T13:39:35Z</time>
      </trkpt>
      <trkpt lat="44.81806" lon="5.1678">
        <ele>890</ele>
        <time>2015-09-24T13:39:42Z</time>
      </trkpt>
      <trkpt lat="44.81796" lon="5.16766">
        <ele>888</ele>
        <time>2015-09-24T13:39:55Z</time>
      </trkpt>
      <trkpt lat="44.81792" lon="5.16772">
        <ele>887</ele>
        <time>2015-09-24T13:40:01Z</time>
      </trkpt>
      <trkpt lat="44.81787" lon="5.16777">
        <ele>886</ele>
        <time>2015-09-24T13:40:07Z</time>
      </trkpt>
      <trkpt lat="44.81783" lon="5.16782">
        <ele>885</ele>
        <time>2015-09-24T13:40:19Z</time>
      </trkpt>
      <trkpt lat="44.81776" lon="5.16774">
        <ele>883</ele>
        <time>2015-09-24T13:40:36Z</time>
      </trkpt>
      <trkpt lat="44.81772" lon="5.1677">
        <ele>882</ele>
        <time>2015-09-24T13:40:42Z</time>
      </trkpt>
      <trkpt lat="44.81761" lon="5.16763">
        <ele>879</ele>
        <time>2015-09-24T13:41:04Z</time>
      </trkpt>
      <trkpt lat="44.81757" lon="5.16766">
        <ele>879</ele>
        <time>2015-09-24T13:41:11Z</time>
      </trkpt>
      <trkpt lat="44.81759" lon="5.16775">
        <ele>879</ele>
        <time>2015-09-24T13:41:16Z</time>
      </trkpt>
      <trkpt lat="44.81761" lon="5.16777">
        <ele>878</ele>
        <time>2015-09-24T13:41:22Z</time>
      </trkpt>
      <trkpt lat="44.81761" lon="5.16783">
        <ele>878</ele>
        <time>2015-09-24T13:41:59Z</time>
      </trkpt>
      <trkpt lat="44.81754" lon="5.16779">
        <ele>878</ele>
        <time>2015-09-24T13:42:46Z</time>
      </trkpt>
      <trkpt lat="44.81751" lon="5.16774">
        <ele>878</ele>
        <time>2015-09-24T13:42:52Z</time>
      </trkpt>
      <trkpt lat="44.81748" lon="5.16773">
        <ele>878</ele>
        <time>2015-09-24T13:42:58Z</time>
      </trkpt>
      <trkpt lat="44.81739" lon="5.16767">
        <ele>878</ele>
        <time>2015-09-24T13:43:08Z</time>
      </trkpt>
      <trkpt lat="44.81725" lon="5.16764">
        <ele>878</ele>
        <time>2015-09-24T13:43:21Z</time>
      </trkpt>
      <trkpt lat="44.81719" lon="5.16767">
        <ele>879</ele>
        <time>2015-09-24T13:43:31Z</time>
      </trkpt>
      <trkpt lat="44.81715" lon="5.16763">
        <ele>880</ele>
        <time>2015-09-24T13:43:35Z</time>
      </trkpt>
      <trkpt lat="44.81711" lon="5.16758">
        <ele>880</ele>
        <time>2015-09-24T13:43:38Z</time>
      </trkpt>
      <trkpt lat="44.81707" lon="5.16757">
        <ele>880</ele>
        <time>2015-09-24T13:43:43Z</time>
      </trkpt>
      <trkpt lat="44.81698" lon="5.16761">
        <ele>880</ele>
        <time>2015-09-24T13:43:51Z</time>
      </trkpt>
      <trkpt lat="44.81692" lon="5.16757">
        <ele>880</ele>
        <time>2015-09-24T13:43:58Z</time>
      </trkpt>
      <trkpt lat="44.8168" lon="5.16758">
        <ele>879</ele>
        <time>2015-09-24T13:44:12Z</time>
      </trkpt>
      <trkpt lat="44.81671" lon="5.16741">
        <ele>878</ele>
        <time>2015-09-24T13:44:22Z</time>
      </trkpt>
      <trkpt lat="44.81665" lon="5.16739">
        <ele>877</ele>
        <time>2015-09-24T13:44:29Z</time>
      </trkpt>
      <trkpt lat="44.8166" lon="5.16741">
        <ele>877</ele>
        <time>2015-09-24T13:44:39Z</time>
      </trkpt>
      <trkpt lat="44.81659" lon="5.16754">
        <ele>876</ele>
        <time>2015-09-24T13:44:47Z</time>
      </trkpt>
      <trkpt lat="44.81654" lon="5.1677">
        <ele>876</ele>
        <time>2015-09-24T13:44:53Z</time>
      </trkpt>
      <trkpt lat="44.81647" lon="5.16765">
        <ele>875</ele>
        <time>2015-09-24T13:45:04Z</time>
      </trkpt>
      <trkpt lat="44.81643" lon="5.16774">
        <ele>875</ele>
        <time>2015-09-24T13:45:15Z</time>
      </trkpt>
      <trkpt lat="44.81638" lon="5.1678">
        <ele>875</ele>
        <time>2015-09-24T13:45:27Z</time>
      </trkpt>
      <trkpt lat="44.8164" lon="5.16787">
        <ele>875</ele>
        <time>2015-09-24T13:45:33Z</time>
      </trkpt>
      <trkpt lat="44.81641" lon="5.16793">
        <ele>876</ele>
        <time>2015-09-24T13:45:38Z</time>
      </trkpt>
      <trkpt lat="44.81638" lon="5.16799">
        <ele>876</ele>
        <time>2015-09-24T13:45:43Z</time>
      </trkpt>
      <trkpt lat="44.81631" lon="5.16805">
        <ele>876</ele>
        <time>2015-09-24T13:45:55Z</time>
      </trkpt>
      <trkpt lat="44.81623" lon="5.16812">
        <ele>876</ele>
        <time>2015-09-24T13:46:08Z</time>
      </trkpt>
      <trkpt lat="44.81615" lon="5.16826">
        <ele>873</ele>
        <time>2015-09-24T13:46:31Z</time>
      </trkpt>
      <trkpt lat="44.81614" lon="5.1683">
        <ele>873</ele>
        <time>2015-09-24T13:46:49Z</time>
      </trkpt>
      <trkpt lat="44.81618" lon="5.16836">
        <ele>872</ele>
        <time>2015-09-24T13:47:06Z</time>
      </trkpt>
      <trkpt lat="44.81617" lon="5.16842">
        <ele>872</ele>
        <time>2015-09-24T13:47:11Z</time>
      </trkpt>
      <trkpt lat="44.81612" lon="5.16857">
        <ele>870</ele>
        <time>2015-09-24T13:47:35Z</time>
      </trkpt>
      <trkpt lat="44.81611" lon="5.16879">
        <ele>869</ele>
        <time>2015-09-24T13:47:47Z</time>
      </trkpt>
      <trkpt lat="44.81624" lon="5.1691">
        <ele>867</ele>
        <time>2015-09-24T13:48:10Z</time>
      </trkpt>
      <trkpt lat="44.81628" lon="5.16914">
        <ele>867</ele>
        <time>2015-09-24T13:48:16Z</time>
      </trkpt>
      <trkpt lat="44.81629" lon="5.16921">
        <ele>867</ele>
        <time>2015-09-24T13:48:21Z</time>
      </trkpt>
      <trkpt lat="44.81633" lon="5.16922">
        <ele>866</ele>
        <time>2015-09-24T13:48:28Z</time>
      </trkpt>
      <trkpt lat="44.81633" lon="5.16929">
        <ele>866</ele>
        <time>2015-09-24T13:48:34Z</time>
      </trkpt>
      <trkpt lat="44.8163" lon="5.16934">
        <ele>866</ele>
        <time>2015-09-24T13:48:43Z</time>
      </trkpt>
      <trkpt lat="44.81634" lon="5.16936">
        <ele>865</ele>
        <time>2015-09-24T13:48:50Z</time>
      </trkpt>
      <trkpt lat="44.81645" lon="5.16943">
        <ele>864</ele>
        <time>2015-09-24T13:49:02Z</time>
      </trkpt>
      <trkpt lat="44.81644" lon="5.16953">
        <ele>863</ele>
        <time>2015-09-24T13:49:12Z</time>
      </trkpt>
      <trkpt lat="44.81646" lon="5.16959">
        <ele>862</ele>
        <time>2015-09-24T13:49:17Z</time>
      </trkpt>
      <trkpt lat="44.81653" lon="5.16972">
        <ele>860</ele>
        <time>2015-09-24T13:49:37Z</time>
      </trkpt>
      <trkpt lat="44.8165" lon="5.16977">
        <ele>860</ele>
        <time>2015-09-24T13:49:45Z</time>
      </trkpt>
      <trkpt lat="44.81654" lon="5.16981">
        <ele>859</ele>
        <time>2015-09-24T13:49:52Z</time>
      </trkpt>
      <trkpt lat="44.81672" lon="5.17001">
        <ele>853</ele>
        <time>2015-09-24T13:50:27Z</time>
      </trkpt>
      <trkpt lat="44.81674" lon="5.17004">
        <ele>852</ele>
        <time>2015-09-24T13:50:35Z</time>
      </trkpt>
      <trkpt lat="44.81679" lon="5.17017">
        <ele>850</ele>
        <time>2015-09-24T13:50:49Z</time>
      </trkpt>
      <trkpt lat="44.81696" lon="5.17038">
        <ele>845</ele>
        <time>2015-09-24T13:51:21Z</time>
      </trkpt>
      <trkpt lat="44.81697" lon="5.17041">
        <ele>844</ele>
        <time>2015-09-24T13:51:27Z</time>
      </trkpt>
      <trkpt lat="44.81695" lon="5.17047">
        <ele>843</ele>
        <time>2015-09-24T13:51:37Z</time>
      </trkpt>
      <trkpt lat="44.81695" lon="5.17048">
        <ele>842</ele>
        <time>2015-09-24T13:51:53Z</time>
      </trkpt>
      <trkpt lat="44.81694" lon="5.17049">
        <ele>842</ele>
        <time>2015-09-24T13:52:01Z</time>
      </trkpt>
      <trkpt lat="44.81701" lon="5.17057">
        <ele>842</ele>
        <time>2015-09-24T13:52:32Z</time>
      </trkpt>
      <trkpt lat="44.81718" lon="5.17072">
        <ele>840</ele>
        <time>2015-09-24T13:52:51Z</time>
      </trkpt>
      <trkpt lat="44.8172" lon="5.17078">
        <ele>839</ele>
        <time>2015-09-24T13:52:55Z</time>
      </trkpt>
      <trkpt lat="44.81724" lon="5.17082">
        <ele>839</ele>
        <time>2015-09-24T13:52:59Z</time>
      </trkpt>
      <trkpt lat="44.81729" lon="5.17095">
        <ele>838</ele>
        <time>2015-09-24T13:53:05Z</time>
      </trkpt>
      <trkpt lat="44.81731" lon="5.17098">
        <ele>837</ele>
        <time>2015-09-24T13:53:13Z</time>
      </trkpt>
      <trkpt lat="44.8173" lon="5.17103">
        <ele>836</ele>
        <time>2015-09-24T13:53:29Z</time>
      </trkpt>
      <trkpt lat="44.81734" lon="5.17105">
        <ele>835</ele>
        <time>2015-09-24T13:54:21Z</time>
      </trkpt>
      <trkpt lat="44.81739" lon="5.17106">
        <ele>835</ele>
        <time>2015-09-24T13:54:30Z</time>
      </trkpt>
      <trkpt lat="44.81749" lon="5.17114">
        <ele>833</ele>
        <time>2015-09-24T13:55:03Z</time>
      </trkpt>
      <trkpt lat="44.81758" lon="5.17117">
        <ele>829</ele>
        <time>2015-09-24T13:55:34Z</time>
      </trkpt>
      <trkpt lat="44.81761" lon="5.17119">
        <ele>829</ele>
        <time>2015-09-24T13:55:45Z</time>
      </trkpt>
      <trkpt lat="44.81763" lon="5.1712">
        <ele>829</ele>
        <time>2015-09-24T13:55:51Z</time>
      </trkpt>
      <trkpt lat="44.81769" lon="5.17141">
        <ele>826</ele>
        <time>2015-09-24T13:56:07Z</time>
      </trkpt>
      <trkpt lat="44.81769" lon="5.17147">
        <ele>824</ele>
        <time>2015-09-24T13:56:17Z</time>
      </trkpt>
      <trkpt lat="44.81774" lon="5.17142">
        <ele>824</ele>
        <time>2015-09-24T13:56:21Z</time>
      </trkpt>
      <trkpt lat="44.81777" lon="5.17147">
        <ele>823</ele>
        <time>2015-09-24T13:56:25Z</time>
      </trkpt>
      <trkpt lat="44.81776" lon="5.17153">
        <ele>822</ele>
        <time>2015-09-24T13:56:29Z</time>
      </trkpt>
      <trkpt lat="44.81775" lon="5.17167">
        <ele>820</ele>
        <time>2015-09-24T13:56:37Z</time>
      </trkpt>
      <trkpt lat="44.81778" lon="5.17172">
        <ele>818</ele>
        <time>2015-09-24T13:56:46Z</time>
      </trkpt>
      <trkpt lat="44.81777" lon="5.17178">
        <ele>817</ele>
        <time>2015-09-24T13:56:55Z</time>
      </trkpt>
      <trkpt lat="44.8178" lon="5.17185">
        <ele>815</ele>
        <time>2015-09-24T13:57:03Z</time>
      </trkpt>
      <trkpt lat="44.81784" lon="5.17188">
        <ele>813</ele>
        <time>2015-09-24T13:57:12Z</time>
      </trkpt>
      <trkpt lat="44.81794" lon="5.17212">
        <ele>808</ele>
        <time>2015-09-24T13:57:37Z</time>
      </trkpt>
      <trkpt lat="44.81794" lon="5.17248">
        <ele>804</ele>
        <time>2015-09-24T13:58:03Z</time>
      </trkpt>
      <trkpt lat="44.81804" lon="5.17271">
        <ele>799</ele>
        <time>2015-09-24T13:58:25Z</time>
      </trkpt>
      <trkpt lat="44.81798" lon="5.17275">
        <ele>798</ele>
        <time>2015-09-24T13:58:30Z</time>
      </trkpt>
      <trkpt lat="44.81801" lon="5.17281">
        <ele>797</ele>
        <time>2015-09-24T13:58:36Z</time>
      </trkpt>
      <trkpt lat="44.818" lon="5.17284">
        <ele>797</ele>
        <time>2015-09-24T13:58:41Z</time>
      </trkpt>
      <trkpt lat="44.81802" lon="5.17291">
        <ele>795</ele>
        <time>2015-09-24T13:58:47Z</time>
      </trkpt>
      <trkpt lat="44.81811" lon="5.17316">
        <ele>790</ele>
        <time>2015-09-24T13:59:28Z</time>
      </trkpt>
      <trkpt lat="44.81807" lon="5.17322">
        <ele>789</ele>
        <time>2015-09-24T13:59:33Z</time>
      </trkpt>
      <trkpt lat="44.81809" lon="5.17335">
        <ele>787</ele>
        <time>2015-09-24T13:59:41Z</time>
      </trkpt>
      <trkpt lat="44.81811" lon="5.17349">
        <ele>785</ele>
        <time>2015-09-24T13:59:52Z</time>
      </trkpt>
      <trkpt lat="44.81809" lon="5.17356">
        <ele>783</ele>
        <time>2015-09-24T14:00:07Z</time>
      </trkpt>
      <trkpt lat="44.81808" lon="5.17359">
        <ele>783</ele>
        <time>2015-09-24T14:00:13Z</time>
      </trkpt>
      <trkpt lat="44.8181" lon="5.17365">
        <ele>784</ele>
        <time>2015-09-24T14:00:38Z</time>
      </trkpt>
      <trkpt lat="44.81807" lon="5.17373">
        <ele>783</ele>
        <time>2015-09-24T14:00:46Z</time>
      </trkpt>
      <trkpt lat="44.81803" lon="5.17378">
        <ele>782</ele>
        <time>2015-09-24T14:00:49Z</time>
      </trkpt>
      <trkpt lat="44.81801" lon="5.17386">
        <ele>782</ele>
        <time>2015-09-24T14:00:52Z</time>
      </trkpt>
      <trkpt lat="44.81797" lon="5.17389">
        <ele>781</ele>
        <time>2015-09-24T14:00:57Z</time>
      </trkpt>
      <trkpt lat="44.81792" lon="5.17388">
        <ele>780</ele>
        <time>2015-09-24T14:01:15Z</time>
      </trkpt>
      <trkpt lat="44.8179" lon="5.17387">
        <ele>779</ele>
        <time>2015-09-24T14:01:21Z</time>
      </trkpt>
      <trkpt lat="44.81788" lon="5.17386">
        <ele>777</ele>
        <time>2015-09-24T14:01:32Z</time>
      </trkpt>
      <trkpt lat="44.81786" lon="5.17389">
        <ele>776</ele>
        <time>2015-09-24T14:01:46Z</time>
      </trkpt>
      <trkpt lat="44.81784" lon="5.17392">
        <ele>776</ele>
        <time>2015-09-24T14:01:47Z</time>
      </trkpt>
      <trkpt lat="44.81781" lon="5.17389">
        <ele>775</ele>
        <time>2015-09-24T14:02:05Z</time>
      </trkpt>
      <trkpt lat="44.8178" lon="5.17394">
        <ele>774</ele>
        <time>2015-09-24T14:02:15Z</time>
      </trkpt>
      <trkpt lat="44.81776" lon="5.1739">
        <ele>774</ele>
        <time>2015-09-24T14:02:25Z</time>
      </trkpt>
      <trkpt lat="44.81765" lon="5.17374">
        <ele>771</ele>
        <time>2015-09-24T14:02:40Z</time>
      </trkpt>
      <trkpt lat="44.81763" lon="5.17362">
        <ele>770</ele>
        <time>2015-09-24T14:02:50Z</time>
      </trkpt>
      <trkpt lat="44.81759" lon="5.17357">
        <ele>769</ele>
        <time>2015-09-24T14:02:57Z</time>
      </trkpt>
      <trkpt lat="44.81754" lon="5.17359">
        <ele>769</ele>
        <time>2015-09-24T14:03:03Z</time>
      </trkpt>
      <trkpt lat="44.81753" lon="5.17359">
        <ele>769</ele>
        <time>2015-09-24T14:03:55Z</time>
      </trkpt>
      <trkpt lat="44.81759" lon="5.17358">
        <ele>769</ele>
        <time>2015-09-24T14:04:09Z</time>
      </trkpt>
      <trkpt lat="44.81757" lon="5.17352">
        <ele>769</ele>
        <time>2015-09-24T14:04:27Z</time>
      </trkpt>
      <trkpt lat="44.81746" lon="5.17328">
        <ele>768</ele>
        <time>2015-09-24T14:04:51Z</time>
      </trkpt>
      <trkpt lat="44.81735" lon="5.17305">
        <ele>769</ele>
        <time>2015-09-24T14:05:12Z</time>
      </trkpt>
      <trkpt lat="44.81728" lon="5.17297">
        <ele>768</ele>
        <time>2015-09-24T14:05:21Z</time>
      </trkpt>
      <trkpt lat="44.81724" lon="5.17293">
        <ele>769</ele>
        <time>2015-09-24T14:05:26Z</time>
      </trkpt>
      <trkpt lat="44.81706" lon="5.17283">
        <ele>765</ele>
        <time>2015-09-24T14:05:44Z</time>
      </trkpt>
      <trkpt lat="44.81701" lon="5.17286">
        <ele>765</ele>
        <time>2015-09-24T14:05:49Z</time>
      </trkpt>
      <trkpt lat="44.81697" lon="5.1729">
        <ele>764</ele>
        <time>2015-09-24T14:05:54Z</time>
      </trkpt>
      <trkpt lat="44.8169" lon="5.17288">
        <ele>764</ele>
        <time>2015-09-24T14:05:59Z</time>
      </trkpt>
      <trkpt lat="44.8166" lon="5.17253">
        <ele>762</ele>
        <time>2015-09-24T14:06:39Z</time>
      </trkpt>
      <trkpt lat="44.81659" lon="5.17246">
        <ele>762</ele>
        <time>2015-09-24T14:06:43Z</time>
      </trkpt>
      <trkpt lat="44.81656" lon="5.1724">
        <ele>762</ele>
        <time>2015-09-24T14:06:47Z</time>
      </trkpt>
      <trkpt lat="44.81651" lon="5.17235">
        <ele>762</ele>
        <time>2015-09-24T14:06:51Z</time>
      </trkpt>
      <trkpt lat="44.81646" lon="5.17236">
        <ele>762</ele>
        <time>2015-09-24T14:06:54Z</time>
      </trkpt>
      <trkpt lat="44.81636" lon="5.17231">
        <ele>762</ele>
        <time>2015-09-24T14:07:03Z</time>
      </trkpt>
      <trkpt lat="44.81633" lon="5.17227">
        <ele>762</ele>
        <time>2015-09-24T14:07:07Z</time>
      </trkpt>
      <trkpt lat="44.81623" lon="5.17224">
        <ele>762</ele>
        <time>2015-09-24T14:07:18Z</time>
      </trkpt>
      <trkpt lat="44.8162" lon="5.17219">
        <ele>762</ele>
        <time>2015-09-24T14:07:23Z</time>
      </trkpt>
      <trkpt lat="44.81618" lon="5.17212">
        <ele>762</ele>
        <time>2015-09-24T14:07:27Z</time>
      </trkpt>
      <trkpt lat="44.81614" lon="5.17209">
        <ele>762</ele>
        <time>2015-09-24T14:07:32Z</time>
      </trkpt>
      <trkpt lat="44.81586" lon="5.17203">
        <ele>763</ele>
        <time>2015-09-24T14:07:51Z</time>
      </trkpt>
      <trkpt lat="44.81582" lon="5.17197">
        <ele>763</ele>
        <time>2015-09-24T14:07:55Z</time>
      </trkpt>
      <trkpt lat="44.81578" lon="5.17192">
        <ele>763</ele>
        <time>2015-09-24T14:08:00Z</time>
      </trkpt>
      <trkpt lat="44.81574" lon="5.17189">
        <ele>763</ele>
        <time>2015-09-24T14:08:07Z</time>
      </trkpt>
      <trkpt lat="44.81569" lon="5.17185">
        <ele>763</ele>
        <time>2015-09-24T14:08:12Z</time>
      </trkpt>
      <trkpt lat="44.81568" lon="5.17181">
        <ele>763</ele>
        <time>2015-09-24T14:08:19Z</time>
      </trkpt>
      <trkpt lat="44.81557" lon="5.17168">
        <ele>764</ele>
        <time>2015-09-24T14:08:34Z</time>
      </trkpt>
      <trkpt lat="44.8155" lon="5.17155">
        <ele>764</ele>
        <time>2015-09-24T14:08:40Z</time>
      </trkpt>
      <trkpt lat="44.81546" lon="5.17153">
        <ele>765</ele>
        <time>2015-09-24T14:08:44Z</time>
      </trkpt>
      <trkpt lat="44.81542" lon="5.17144">
        <ele>765</ele>
        <time>2015-09-24T14:08:47Z</time>
      </trkpt>
      <trkpt lat="44.81537" lon="5.17142">
        <ele>765</ele>
        <time>2015-09-24T14:08:55Z</time>
      </trkpt>
      <trkpt lat="44.81537" lon="5.17137">
        <ele>764</ele>
        <time>2015-09-24T14:09:04Z</time>
      </trkpt>
      <trkpt lat="44.81532" lon="5.17133">
        <ele>764</ele>
        <time>2015-09-24T14:09:16Z</time>
      </trkpt>
      <trkpt lat="44.81517" lon="5.17126">
        <ele>763</ele>
        <time>2015-09-24T14:09:27Z</time>
      </trkpt>
      <trkpt lat="44.81514" lon="5.1712">
        <ele>762</ele>
        <time>2015-09-24T14:09:32Z</time>
      </trkpt>
      <trkpt lat="44.8151" lon="5.17119">
        <ele>762</ele>
        <time>2015-09-24T14:09:36Z</time>
      </trkpt>
      <trkpt lat="44.81486" lon="5.17111">
        <ele>760</ele>
        <time>2015-09-24T14:09:58Z</time>
      </trkpt>
      <trkpt lat="44.81482" lon="5.1711">
        <ele>760</ele>
        <time>2015-09-24T14:10:03Z</time>
      </trkpt>
      <trkpt lat="44.8145" lon="5.17092">
        <ele>758</ele>
        <time>2015-09-24T14:10:36Z</time>
      </trkpt>
      <trkpt lat="44.81418" lon="5.17082">
        <ele>755</ele>
        <time>2015-09-24T14:11:07Z</time>
      </trkpt>
      <trkpt lat="44.81412" lon="5.1708">
        <ele>754</ele>
        <time>2015-09-24T14:11:13Z</time>
      </trkpt>
      <trkpt lat="44.814" lon="5.17083">
        <ele>752</ele>
        <time>2015-09-24T14:11:23Z</time>
      </trkpt>
      <trkpt lat="44.81396" lon="5.17079">
        <ele>751</ele>
        <time>2015-09-24T14:11:30Z</time>
      </trkpt>
      <trkpt lat="44.81383" lon="5.1707">
        <ele>749</ele>
        <time>2015-09-24T14:11:44Z</time>
      </trkpt>
      <trkpt lat="44.81384" lon="5.17055">
        <ele>749</ele>
        <time>2015-09-24T14:11:52Z</time>
      </trkpt>
      <trkpt lat="44.81379" lon="5.17051">
        <ele>749</ele>
        <time>2015-09-24T14:11:59Z</time>
      </trkpt>
      <trkpt lat="44.81379" lon="5.17044">
        <ele>748</ele>
        <time>2015-09-24T14:12:06Z</time>
      </trkpt>
      <trkpt lat="44.81378" lon="5.1704">
        <ele>747</ele>
        <time>2015-09-24T14:12:19Z</time>
      </trkpt>
      <trkpt lat="44.81377" lon="5.17036">
        <ele>747</ele>
        <time>2015-09-24T14:13:06Z</time>
      </trkpt>
      <trkpt lat="44.81378" lon="5.17031">
        <ele>747</ele>
        <time>2015-09-24T14:13:25Z</time>
      </trkpt>
      <trkpt lat="44.81374" lon="5.17017">
        <ele>747</ele>
        <time>2015-09-24T14:13:36Z</time>
      </trkpt>
      <trkpt lat="44.81377" lon="5.17005">
        <ele>747</ele>
        <time>2015-09-24T14:13:39Z</time>
      </trkpt>
      <trkpt lat="44.8137" lon="5.16986">
        <ele>747</ele>
        <time>2015-09-24T14:14:09Z</time>
      </trkpt>
      <trkpt lat="44.81368" lon="5.16978">
        <ele>747</ele>
        <time>2015-09-24T14:15:06Z</time>
      </trkpt>
      <trkpt lat="44.81368" lon="5.16973">
        <ele>747</ele>
        <time>2015-09-24T14:15:14Z</time>
      </trkpt>
      <trkpt lat="44.81371" lon="5.16967">
        <ele>747</ele>
        <time>2015-09-24T14:15:23Z</time>
      </trkpt>
      <trkpt lat="44.8137" lon="5.16946">
        <ele>747</ele>
        <time>2015-09-24T14:15:37Z</time>
      </trkpt>
      <trkpt lat="44.81368" lon="5.16951">
        <ele>747</ele>
        <time>2015-09-24T14:15:43Z</time>
      </trkpt>
      <trkpt lat="44.81368" lon="5.16949">
        <ele>747</ele>
        <time>2015-09-24T14:15:52Z</time>
      </trkpt>
      <trkpt lat="44.81372" lon="5.16945">
        <ele>747</ele>
        <time>2015-09-24T14:15:59Z</time>
      </trkpt>
      <trkpt lat="44.8137" lon="5.16938">
        <ele>746</ele>
        <time>2015-09-24T14:16:09Z</time>
      </trkpt>
      <trkpt lat="44.81367" lon="5.16931">
        <ele>746</ele>
        <time>2015-09-24T14:16:14Z</time>
      </trkpt>
      <trkpt lat="44.81363" lon="5.16928">
        <ele>746</ele>
        <time>2015-09-24T14:16:18Z</time>
      </trkpt>
      <trkpt lat="44.81363" lon="5.16924">
        <ele>745</ele>
        <time>2015-09-24T14:16:31Z</time>
      </trkpt>
      <trkpt lat="44.81365" lon="5.16918">
        <ele>745</ele>
        <time>2015-09-24T14:16:39Z</time>
      </trkpt>
      <trkpt lat="44.81363" lon="5.16904">
        <ele>744</ele>
        <time>2015-09-24T14:16:52Z</time>
      </trkpt>
      <trkpt lat="44.81355" lon="5.16863">
        <ele>741</ele>
        <time>2015-09-24T14:17:27Z</time>
      </trkpt>
      <trkpt lat="44.81351" lon="5.16844">
        <ele>742</ele>
        <time>2015-09-24T14:17:46Z</time>
      </trkpt>
      <trkpt lat="44.81347" lon="5.16822">
        <ele>740</ele>
        <time>2015-09-24T14:18:02Z</time>
      </trkpt>
      <trkpt lat="44.81342" lon="5.16809">
        <ele>740</ele>
        <time>2015-09-24T14:18:10Z</time>
      </trkpt>
      <trkpt lat="44.81342" lon="5.16788">
        <ele>740</ele>
        <time>2015-09-24T14:18:22Z</time>
      </trkpt>
      <trkpt lat="44.81339" lon="5.16781">
        <ele>740</ele>
        <time>2015-09-24T14:18:25Z</time>
      </trkpt>
      <trkpt lat="44.81337" lon="5.16772">
        <ele>739</ele>
        <time>2015-09-24T14:18:32Z</time>
      </trkpt>
      <trkpt lat="44.81338" lon="5.16765">
        <ele>738</ele>
        <time>2015-09-24T14:18:38Z</time>
      </trkpt>
      <trkpt lat="44.81331" lon="5.16731">
        <ele>736</ele>
        <time>2015-09-24T14:19:04Z</time>
      </trkpt>
      <trkpt lat="44.81332" lon="5.16725">
        <ele>736</ele>
        <time>2015-09-24T14:19:08Z</time>
      </trkpt>
      <trkpt lat="44.8133" lon="5.16719">
        <ele>735</ele>
        <time>2015-09-24T14:19:12Z</time>
      </trkpt>
      <trkpt lat="44.81327" lon="5.16713">
        <ele>735</ele>
        <time>2015-09-24T14:19:18Z</time>
      </trkpt>
      <trkpt lat="44.81323" lon="5.16709">
        <ele>735</ele>
        <time>2015-09-24T14:19:24Z</time>
      </trkpt>
      <trkpt lat="44.8132" lon="5.16701">
        <ele>735</ele>
        <time>2015-09-24T14:19:29Z</time>
      </trkpt>
      <trkpt lat="44.81316" lon="5.16696">
        <ele>735</ele>
        <time>2015-09-24T14:19:33Z</time>
      </trkpt>
      <trkpt lat="44.81312" lon="5.1667">
        <ele>734</ele>
        <time>2015-09-24T14:19:54Z</time>
      </trkpt>
      <trkpt lat="44.81304" lon="5.1666">
        <ele>733</ele>
        <time>2015-09-24T14:20:06Z</time>
      </trkpt>
      <trkpt lat="44.813" lon="5.16647">
        <ele>733</ele>
        <time>2015-09-24T14:20:15Z</time>
      </trkpt>
      <trkpt lat="44.8129" lon="5.16634">
        <ele>733</ele>
        <time>2015-09-24T14:20:30Z</time>
      </trkpt>
      <trkpt lat="44.8129" lon="5.16627">
        <ele>733</ele>
        <time>2015-09-24T14:20:36Z</time>
      </trkpt>
      <trkpt lat="44.8129" lon="5.16613">
        <ele>732</ele>
        <time>2015-09-24T14:20:49Z</time>
      </trkpt>
      <trkpt lat="44.81287" lon="5.16607">
        <ele>731</ele>
        <time>2015-09-24T14:20:54Z</time>
      </trkpt>
      <trkpt lat="44.81283" lon="5.16602">
        <ele>731</ele>
        <time>2015-09-24T14:20:58Z</time>
      </trkpt>
      <trkpt lat="44.81286" lon="5.16596">
        <ele>731</ele>
        <time>2015-09-24T14:21:03Z</time>
      </trkpt>
      <trkpt lat="44.81289" lon="5.16591">
        <ele>730</ele>
        <time>2015-09-24T14:21:07Z</time>
      </trkpt>
      <trkpt lat="44.81288" lon="5.16582">
        <ele>730</ele>
        <time>2015-09-24T14:21:26Z</time>
      </trkpt>
      <trkpt lat="44.81295" lon="5.16572">
        <ele>729</ele>
        <time>2015-09-24T14:22:09Z</time>
      </trkpt>
      <trkpt lat="44.81295" lon="5.16564">
        <ele>728</ele>
        <time>2015-09-24T14:22:15Z</time>
      </trkpt>
      <trkpt lat="44.81297" lon="5.16544">
        <ele>725</ele>
        <time>2015-09-24T14:22:44Z</time>
      </trkpt>
      <trkpt lat="44.81301" lon="5.16548">
        <ele>725</ele>
        <time>2015-09-24T14:22:50Z</time>
      </trkpt>
      <trkpt lat="44.81304" lon="5.16542">
        <ele>724</ele>
        <time>2015-09-24T14:22:56Z</time>
      </trkpt>
      <trkpt lat="44.8131" lon="5.16522">
        <ele>723</ele>
        <time>2015-09-24T14:23:10Z</time>
      </trkpt>
      <trkpt lat="44.81315" lon="5.16519">
        <ele>723</ele>
        <time>2015-09-24T14:23:14Z</time>
      </trkpt>
      <trkpt lat="44.81317" lon="5.1652">
        <ele>723</ele>
        <time>2015-09-24T14:23:16Z</time>
      </trkpt>
      <trkpt lat="44.81317" lon="5.16513">
        <ele>723</ele>
        <time>2015-09-24T14:23:21Z</time>
      </trkpt>
      <trkpt lat="44.81317" lon="5.16507">
        <ele>722</ele>
        <time>2015-09-24T14:23:26Z</time>
      </trkpt>
      <trkpt lat="44.81314" lon="5.16502">
        <ele>722</ele>
        <time>2015-09-24T14:23:32Z</time>
      </trkpt>
      <trkpt lat="44.8131" lon="5.16506">
        <ele>722</ele>
        <time>2015-09-24T14:23:37Z</time>
      </trkpt>
      <trkpt lat="44.81305" lon="5.16507">
        <ele>721</ele>
        <time>2015-09-24T14:23:41Z</time>
      </trkpt>
      <trkpt lat="44.81304" lon="5.1651">
        <ele>721</ele>
        <time>2015-09-24T14:23:47Z</time>
      </trkpt>
      <trkpt lat="44.81299" lon="5.1651">
        <ele>721</ele>
        <time>2015-09-24T14:23:57Z</time>
      </trkpt>
      <trkpt lat="44.81295" lon="5.16511">
        <ele>720</ele>
        <time>2015-09-24T14:24:01Z</time>
      </trkpt>
      <trkpt lat="44.81293" lon="5.16505">
        <ele>720</ele>
        <time>2015-09-24T14:24:08Z</time>
      </trkpt>
      <trkpt lat="44.81288" lon="5.16495">
        <ele>718</ele>
        <time>2015-09-24T14:24:21Z</time>
      </trkpt>
      <trkpt lat="44.81289" lon="5.16489">
        <ele>717</ele>
        <time>2015-09-24T14:24:30Z</time>
      </trkpt>
      <trkpt lat="44.81292" lon="5.16485">
        <ele>716</ele>
        <time>2015-09-24T14:24:41Z</time>
      </trkpt>
      <trkpt lat="44.81297" lon="5.16484">
        <ele>716</ele>
        <time>2015-09-24T14:24:43Z</time>
      </trkpt>
      <trkpt lat="44.81301" lon="5.16482">
        <ele>716</ele>
        <time>2015-09-24T14:24:45Z</time>
      </trkpt>
      <trkpt lat="44.81302" lon="5.16475">
        <ele>715</ele>
        <time>2015-09-24T14:24:50Z</time>
      </trkpt>
      <trkpt lat="44.81299" lon="5.16471">
        <ele>715</ele>
        <time>2015-09-24T14:24:59Z</time>
      </trkpt>
    </trkseg>
  </trk>
</gpx>